This is the latest recevied weather packets stored in our database for station/object DL9TPA-1. If no packets are shown the sender has not sent any weather packets the latest 10 day(s).
| Time | Temp. | Humidity | Pressure | Rain* | Wind** | Luminosity | Snow |
|---|---|---|---|---|---|---|---|
| 1777530215 | 10.56° C | 48% | 1031 hPa | 0 mm | - | - | - |
| 1777529614 | 9.44° C | 50% | 1031 hPa | 0 mm | - | - | - |
| 1777529013 | 8.89° C | 51% | 1030.9 hPa | 0 mm | - | - | - |
| 1777528412 | 7.78° C | 53% | 1030.8 hPa | 0 mm | - | - | - |
| 1777527808 | 7.22° C | 56% | 1030.8 hPa | 0 mm | - | - | - |
| 1777527207 | 6.11° C | 58% | 1030.8 hPa | 0 mm | - | - | - |
| 1777526604 | 5° C | 62% | 1030.7 hPa | 0 mm | - | - | - |
| 1777526001 | 4.44° C | 64% | 1030.7 hPa | 0 mm | - | - | - |
| 1777525402 | 2.78° C | 69% | 1030.5 hPa | 0 mm | - | - | - |
| 1777524798 | 1.67° C | 73% | 1030.4 hPa | 0 mm | - | - | - |
| 1777524198 | 0° C | 75% | 1030.3 hPa | 0 mm | - | - | - |
| 1777523595 | -0.56° C | 73% | 1030.3 hPa | 0 mm | - | - | - |
| 1777522992 | -0.56° C | 71% | 1030.3 hPa | 0 mm | - | - | - |
| 1777522391 | -0.56° C | 72% | 1030.3 hPa | 0 mm | - | - | - |
| 1777521788 | -0.56° C | 71% | 1030.3 hPa | 0 mm | - | - | - |
| 1777521189 | -0.56° C | 70% | 1030.3 hPa | 0 mm | - | - | - |
| 1777520584 | -0.56° C | 70% | 1030.2 hPa | 0 mm | - | - | - |
| 1777519982 | -0.56° C | 69% | 1030.1 hPa | 0 mm | - | - | - |
| 1777519380 | -0.56° C | 69% | 1030.1 hPa | 0 mm | - | - | - |
| 1777518779 | -0.56° C | 69% | 1030.1 hPa | 0 mm | - | - | - |
| 1777518177 | 0° C | 69% | 1030.2 hPa | 0 mm | - | - | - |
| 1777517574 | 0° C | 70% | 1030.1 hPa | 0 mm | - | - | - |
| 1777516972 | 0° C | 68% | 1030.2 hPa | 0 mm | - | - | - |
| 1777516370 | 0° C | 68% | 1030.1 hPa | 0 mm | - | - | - |
| 1777515767 | 0° C | 67% | 1030.1 hPa | 0 mm | - | - | - |
* Rain latest hour (hover to see other rain measurements)
** Current wind speed in m/s (hover to see current wind gust speed)